This is the latest recevied weather packets stored in our database for station/object WO4U-13. If no packets are shown the sender has not sent any weather packets the latest 10 day(s).
| Time | Temp. | Humidity | Pressure | Rain* | Wind** | Luminosity | Snow |
|---|---|---|---|---|---|---|---|
| 1787500983 | 23.89° C | 81% | 0 hPa | 0 mm | 0 m/s | - | - |
| 1787500385 | 23.33° C | 82% | 0 hPa | 0 mm | 0 m/s | - | - |
| 1787500083 | 23.33° C | 85% | 0 hPa | 0 mm | 0 m/s | - | - |
| 1787499783 | 22.78° C | 89% | 0 hPa | 0 mm | 0 m/s | - | - |
| 1787499482 | 22.22° C | 91% | 0 hPa | 0 mm | 0 m/s | - | - |
| 1787499184 | 22.22° C | 91% | 0 hPa | 0 mm | 0 m/s | - | - |
| 1787498282 | 21.67° C | 98% | 0 hPa | 0 mm | 0.45 m/s, 7° | - | - |
| 1787497684 | 20.56° C | 98% | 0 hPa | 0 mm | 0 m/s | - | - |
| 1787496184 | 20° C | 99% | 0 hPa | 0 mm | 0 m/s | - | - |
| 1787495882 | 19.44° C | 99% | 0 hPa | 0 mm | 0 m/s | - | - |
| 1787494990 | 18.89° C | 99% | 0 hPa | 0 mm | 0 m/s | - | - |
| 1787494382 | 18.89° C | 99% | 0 hPa | 0 mm | 0 m/s | - | - |
| 1787493784 | 18.89° C | 99% | 0 hPa | 0 mm | 0 m/s | - | - |
| 1787492626 | 18.33° C | 99% | 0 hPa | 0 mm | 0 m/s | - | - |
| 1787492582 | 18.33° C | 99% | 0 hPa | 0 mm | 0 m/s | - | - |
| 1787492282 | 18.33° C | 99% | 0 hPa | 0 mm | 0 m/s | - | - |
| 1787491682 | 17.78° C | 99% | 0 hPa | 0 mm | 0 m/s | - | - |
| 1787490782 | 17.78° C | 99% | 0 hPa | 0 mm | 0 m/s | - | - |
| 1787490483 | 17.78° C | 99% | 0 hPa | 0 mm | 0 m/s | - | - |
| 1787490182 | 17.22° C | 99% | 0 hPa | 0 mm | 0 m/s | - | - |
| 1787489882 | 17.22° C | 99% | 0 hPa | 0 mm | 0 m/s | - | - |
| 1787489282 | 16.67° C | 99% | 0 hPa | 0 mm | 0 m/s | - | - |
| 1787488981 | 16.67° C | 99% | 0 hPa | 0 mm | 0 m/s | - | - |
| 1787488082 | 16.11° C | 99% | 0 hPa | 0 mm | 0 m/s | - | - |
| 1787487482 | 16.11° C | 99% | 0 hPa | 0 mm | 0 m/s | - | - |
* Rain latest hour (hover to see other rain measurements)
** Current wind speed in m/s (hover to see current wind gust speed)